createdAt,value
2022-08-11T00:00:20.858Z,0.00
2022-08-11T00:01:20.838Z,0.00
2022-08-11T00:02:20.926Z,0.00
2022-08-11T00:03:20.897Z,0.00
2022-08-11T00:04:20.806Z,0.00
2022-08-11T00:05:20.797Z,0.00
2022-08-11T00:06:20.771Z,0.00
2022-08-11T00:07:20.758Z,0.00
2022-08-11T00:08:20.751Z,0.00
2022-08-11T00:09:20.729Z,0.00
2022-08-11T00:10:20.730Z,0.00
2022-08-11T00:11:20.714Z,0.00
2022-08-11T00:12:20.705Z,0.00
2022-08-11T00:13:20.682Z,0.00
2022-08-11T00:14:20.667Z,0.00
2022-08-11T00:15:20.651Z,0.00
2022-08-11T00:16:20.635Z,0.00
2022-08-11T00:17:20.624Z,0.00
2022-08-11T00:18:20.617Z,0.00
2022-08-11T00:20:11.883Z,0.00
2022-08-11T00:20:21.603Z,0.00
2022-08-11T00:21:20.567Z,0.00
2022-08-11T00:22:21.609Z,0.00
2022-08-11T00:23:20.546Z,0.00
2022-08-11T00:24:20.541Z,0.00
2022-08-11T00:25:20.523Z,0.00
2022-08-11T00:26:20.507Z,0.00
2022-08-11T00:27:20.494Z,0.00
2022-08-11T00:28:20.482Z,0.00
2022-08-11T00:29:20.464Z,0.00
2022-08-11T00:30:20.453Z,0.00
2022-08-11T00:31:20.432Z,0.00
2022-08-11T00:32:20.427Z,0.00
2022-08-11T00:33:20.404Z,0.00
2022-08-11T00:34:20.402Z,0.00
2022-08-11T00:35:51.317Z,0.00
2022-08-11T00:36:25.434Z,0.00
2022-08-11T00:37:20.357Z,0.00
2022-08-11T00:38:20.345Z,0.00
2022-08-11T00:39:20.467Z,0.00
2022-08-11T00:40:20.323Z,0.00
2022-08-11T00:41:20.307Z,0.00
2022-08-11T00:42:20.293Z,0.00
2022-08-11T00:43:21.062Z,0.00
2022-08-11T00:44:20.261Z,0.00
2022-08-11T00:45:20.253Z,0.00
2022-08-11T00:46:20.235Z,0.00
2022-08-11T00:47:20.219Z,0.00
2022-08-11T00:48:20.210Z,0.00
2022-08-11T00:49:20.193Z,0.00
2022-08-11T00:50:20.183Z,0.00
2022-08-11T00:51:20.167Z,0.00
2022-08-11T00:52:20.154Z,0.00
2022-08-11T00:53:20.141Z,0.00
2022-08-11T00:54:20.124Z,0.00
2022-08-11T00:55:20.108Z,0.00
2022-08-11T00:56:20.098Z,0.00
2022-08-11T00:57:36.942Z,0.00
2022-08-11T00:58:22.508Z,0.00
2022-08-11T00:59:35.566Z,0.00
2022-08-11T01:00:20.048Z,0.00
2022-08-11T01:01:20.151Z,0.00
2022-08-11T01:02:20.019Z,0.00
2022-08-11T01:03:20.010Z,0.00
2022-08-11T01:04:19.995Z,0.00
2022-08-11T01:05:19.978Z,0.00
2022-08-11T01:06:19.968Z,0.00
2022-08-11T01:08:00.433Z,0.00
2022-08-11T01:08:19.934Z,0.00
2022-08-11T01:09:22.091Z,0.00
2022-08-11T01:10:19.910Z,0.00
2022-08-11T01:11:19.891Z,0.00
2022-08-11T01:12:19.876Z,0.00
2022-08-11T01:13:19.862Z,0.00
2022-08-11T01:14:19.856Z,0.00
2022-08-11T01:15:19.841Z,0.00
2022-08-11T01:16:19.836Z,0.00
2022-08-11T01:17:19.810Z,0.00
2022-08-11T01:18:19.801Z,0.00
2022-08-11T01:19:19.785Z,0.00
2022-08-11T01:20:45.543Z,0.00
2022-08-11T01:21:19.753Z,0.00
2022-08-11T01:22:19.747Z,0.00
2022-08-11T01:23:19.724Z,0.00
2022-08-11T01:24:19.716Z,0.00
2022-08-11T01:25:19.699Z,0.00
2022-08-11T01:26:19.694Z,0.00
2022-08-11T01:27:20.101Z,0.00
2022-08-11T01:28:19.669Z,0.00
2022-08-11T01:29:19.661Z,0.00
2022-08-11T01:30:19.636Z,0.00
2022-08-11T01:31:19.623Z,0.00
2022-08-11T01:32:19.606Z,0.00
2022-08-11T01:33:19.596Z,0.00
2022-08-11T01:34:19.587Z,0.00
2022-08-11T01:35:19.564Z,0.00
2022-08-11T01:36:19.559Z,0.00
2022-08-11T01:37:19.539Z,0.00
2022-08-11T01:38:19.532Z,0.00
2022-08-11T01:39:19.538Z,0.00
2022-08-11T01:40:19.508Z,0.00
2022-08-11T01:41:19.484Z,0.00
2022-08-11T01:42:19.479Z,0.00
2022-08-11T01:43:19.455Z,0.00
2022-08-11T01:44:19.453Z,0.00
2022-08-11T01:45:19.433Z,0.00
2022-08-11T01:46:19.426Z,0.00
2022-08-11T01:47:19.402Z,0.00
2022-08-11T01:48:19.395Z,0.00
2022-08-11T01:50:05.771Z,0.00
2022-08-11T01:50:19.364Z,0.00
2022-08-11T01:51:19.351Z,0.00
2022-08-11T01:52:19.337Z,0.00
2022-08-11T01:53:19.330Z,0.00
2022-08-11T01:54:19.312Z,0.00
2022-08-11T01:55:19.300Z,0.00
2022-08-11T01:56:19.282Z,0.00
2022-08-11T01:57:19.271Z,0.00
2022-08-11T01:58:19.260Z,0.00
2022-08-11T01:59:19.246Z,0.00
2022-08-11T02:00:19.337Z,0.00
2022-08-11T02:01:19.255Z,0.00
2022-08-11T02:02:21.504Z,0.00
2022-08-11T02:03:19.188Z,0.00
2022-08-11T02:04:19.176Z,0.00
2022-08-11T02:05:19.161Z,0.00
2022-08-11T02:06:19.153Z,0.00
2022-08-11T02:07:19.132Z,0.00
2022-08-11T02:08:19.129Z,0.00
2022-08-11T02:09:19.106Z,0.00
2022-08-11T02:10:19.098Z,0.00
2022-08-11T02:11:19.075Z,0.00
2022-08-11T02:12:19.070Z,0.00
2022-08-11T02:13:30.270Z,0.00
2022-08-11T02:14:19.048Z,0.00
2022-08-11T02:15:19.022Z,0.00
2022-08-11T02:16:19.018Z,0.00
2022-08-11T02:17:18.999Z,0.00
2022-08-11T02:18:18.990Z,0.00
2022-08-11T02:19:18.973Z,0.00
2022-08-11T02:20:18.959Z,0.00
2022-08-11T02:21:18.948Z,0.00
2022-08-11T02:22:18.944Z,0.00
2022-08-11T02:24:00.552Z,0.00
2022-08-11T02:24:19.925Z,0.00
2022-08-11T02:25:18.889Z,0.00
2022-08-11T02:26:18.881Z,0.00
2022-08-11T02:27:18.864Z,0.00
2022-08-11T02:28:18.854Z,0.00
2022-08-11T02:29:18.843Z,0.00
2022-08-11T02:30:18.823Z,0.00
2022-08-11T02:32:11.001Z,0.00
2022-08-11T02:32:28.903Z,0.00
2022-08-11T02:33:18.779Z,0.00
2022-08-11T02:34:18.778Z,0.00
2022-08-11T02:35:18.757Z,0.00
2022-08-11T02:36:18.745Z,0.00
2022-08-11T02:37:22.025Z,0.00
2022-08-11T02:38:18.720Z,0.00
2022-08-11T02:39:18.940Z,0.00
2022-08-11T02:40:18.694Z,0.00
2022-08-11T02:41:18.675Z,0.00
2022-08-11T02:42:35.094Z,0.00
2022-08-11T02:43:19.670Z,0.00
2022-08-11T02:44:18.657Z,0.00
2022-08-11T02:45:18.622Z,0.00
2022-08-11T02:46:18.756Z,0.00
2022-08-11T02:47:18.598Z,0.00
2022-08-11T02:48:18.580Z,0.00
2022-08-11T02:49:18.562Z,0.00
2022-08-11T02:50:18.557Z,0.00
2022-08-11T02:51:21.865Z,0.00
2022-08-11T02:52:18.536Z,0.00
2022-08-11T02:53:18.511Z,0.00
2022-08-11T02:54:18.499Z,0.00
2022-08-11T02:55:56.285Z,0.00
2022-08-11T02:56:18.471Z,0.00
2022-08-11T02:57:18.452Z,0.00
2022-08-11T02:58:19.967Z,0.00
2022-08-11T02:59:18.432Z,0.00
2022-08-11T03:00:18.416Z,0.00
2022-08-11T03:01:18.473Z,0.00
2022-08-11T03:02:18.418Z,0.00
2022-08-11T03:03:18.391Z,0.00
2022-08-11T03:04:18.364Z,0.00
2022-08-11T03:05:18.347Z,0.00
2022-08-11T03:06:18.338Z,0.00
2022-08-11T03:07:28.911Z,0.00
2022-08-11T03:08:18.309Z,0.00
2022-08-11T03:09:18.293Z,0.00
2022-08-11T03:10:18.295Z,0.00
2022-08-11T03:11:18.267Z,0.00
2022-08-11T03:12:18.261Z,0.00
2022-08-11T03:13:18.242Z,0.00
2022-08-11T03:14:18.231Z,0.00
2022-08-11T03:15:18.214Z,0.00
2022-08-11T03:16:18.205Z,0.00
2022-08-11T03:17:18.191Z,0.00
2022-08-11T03:18:18.173Z,0.00
2022-08-11T03:19:18.154Z,0.00
2022-08-11T03:20:18.148Z,0.00
2022-08-11T03:21:18.127Z,0.00
2022-08-11T03:22:18.129Z,0.00
2022-08-11T03:23:20.080Z,0.00
2022-08-11T03:24:18.099Z,0.00
2022-08-11T03:25:18.078Z,0.00
2022-08-11T03:26:18.064Z,0.00
2022-08-11T03:27:18.047Z,0.00
2022-08-11T03:28:18.037Z,0.00
2022-08-11T03:29:18.313Z,0.00
2022-08-11T03:30:18.012Z,0.00
2022-08-11T03:31:17.992Z,0.00
2022-08-11T03:32:17.985Z,0.00
2022-08-11T03:33:17.972Z,0.00
2022-08-11T03:34:17.964Z,0.00
2022-08-11T03:35:21.542Z,0.00
2022-08-11T03:36:17.934Z,0.00
2022-08-11T03:37:18.404Z,0.00
2022-08-11T03:38:17.904Z,0.00
2022-08-11T03:39:17.962Z,0.00
2022-08-11T03:40:17.879Z,0.00
2022-08-11T03:42:01.997Z,0.00
2022-08-11T03:42:17.846Z,0.00
2022-08-11T03:43:17.935Z,0.00
2022-08-11T03:44:17.824Z,0.00
2022-08-11T03:45:17.806Z,0.00
2022-08-11T03:46:17.799Z,0.00
2022-08-11T03:47:17.779Z,0.00
2022-08-11T03:48:17.770Z,0.00
2022-08-11T03:49:17.752Z,0.00
2022-08-11T03:50:17.739Z,0.00
2022-08-11T03:51:17.719Z,0.00
2022-08-11T03:52:17.708Z,0.00
2022-08-11T03:53:17.690Z,0.00
2022-08-11T03:54:17.684Z,0.00
2022-08-11T03:55:17.671Z,0.00
2022-08-11T03:56:17.656Z,0.00
2022-08-11T03:57:17.648Z,0.00
2022-08-11T03:58:17.620Z,0.00
2022-08-11T03:59:17.627Z,0.00
2022-08-11T04:00:17.606Z,0.00
2022-08-11T04:01:17.608Z,0.00
2022-08-11T04:02:17.568Z,0.00
2022-08-11T04:03:17.555Z,0.00
2022-08-11T04:04:17.538Z,0.00
2022-08-11T04:05:17.530Z,0.00
2022-08-11T04:06:17.517Z,0.00
2022-08-11T04:07:17.895Z,0.00
2022-08-11T04:08:17.484Z,0.00
2022-08-11T04:09:17.474Z,5.62
2022-08-11T04:10:17.456Z,5.62
2022-08-11T04:11:17.446Z,5.62
2022-08-11T04:12:17.430Z,5.62
2022-08-11T04:13:17.422Z,5.62
2022-08-11T04:14:17.405Z,5.62
2022-08-11T04:15:17.423Z,5.62
2022-08-11T04:16:17.384Z,5.62
2022-08-11T04:17:17.370Z,5.62
2022-08-11T04:18:17.359Z,11.25
2022-08-11T04:19:17.342Z,11.25
2022-08-11T04:20:17.339Z,11.25
2022-08-11T04:21:17.312Z,11.25
2022-08-11T04:22:17.290Z,11.25
2022-08-11T04:24:35.011Z,11.25
2022-08-11T04:24:38.437Z,11.25
2022-08-11T04:25:18.327Z,16.88
2022-08-11T04:26:18.825Z,16.88
2022-08-11T04:27:17.231Z,16.88
2022-08-11T04:28:28.391Z,16.88
2022-08-11T04:29:17.204Z,16.88
2022-08-11T04:30:17.181Z,16.88
2022-08-11T04:31:44.056Z,22.50
2022-08-11T04:32:17.154Z,22.50
2022-08-11T04:33:17.142Z,22.50
2022-08-11T04:34:17.130Z,22.50
2022-08-11T04:35:17.120Z,22.50
2022-08-11T04:36:17.101Z,28.12
2022-08-11T04:37:17.092Z,28.12
2022-08-11T04:38:17.079Z,28.12
2022-08-11T04:39:17.110Z,28.12
2022-08-11T04:40:17.050Z,28.12
2022-08-11T04:41:17.042Z,33.75
2022-08-11T04:42:17.025Z,33.75
2022-08-11T04:43:17.012Z,33.75
2022-08-11T04:44:16.995Z,33.75
2022-08-11T04:45:16.983Z,39.38
2022-08-11T04:46:16.964Z,39.38
2022-08-11T04:47:16.956Z,39.38
2022-08-11T04:48:17.136Z,39.38
2022-08-11T04:49:25.654Z,39.38
2022-08-11T04:50:16.912Z,45.00
2022-08-11T04:51:17.791Z,45.00
2022-08-11T04:52:16.881Z,45.00
2022-08-11T04:53:16.873Z,45.00
2022-08-11T04:54:16.860Z,45.00
2022-08-11T04:55:16.851Z,45.00
2022-08-11T04:56:16.834Z,50.62
2022-08-11T04:57:16.825Z,50.62
2022-08-11T04:58:16.802Z,50.62
2022-08-11T04:59:16.788Z,50.62
2022-08-11T05:00:16.772Z,50.62
2022-08-11T05:01:16.801Z,50.62
2022-08-11T05:02:17.664Z,56.25
2022-08-11T05:03:16.741Z,56.25
2022-08-11T05:04:16.722Z,56.25
2022-08-11T05:05:16.714Z,56.25
2022-08-11T05:06:16.695Z,56.25
2022-08-11T05:07:16.685Z,61.88
2022-08-11T05:08:18.573Z,61.88
2022-08-11T05:09:16.658Z,61.88
2022-08-11T05:10:16.637Z,61.88
2022-08-11T05:11:16.624Z,61.88
2022-08-11T05:12:16.613Z,67.50
2022-08-11T05:13:16.605Z,67.50
2022-08-11T05:14:16.587Z,67.50
2022-08-11T05:15:16.576Z,73.12
2022-08-11T05:16:16.565Z,73.12
2022-08-11T05:17:16.561Z,73.12
2022-08-11T05:18:16.531Z,73.12
2022-08-11T05:19:16.518Z,73.12
2022-08-11T05:20:16.502Z,78.75
2022-08-11T05:21:16.491Z,78.75
2022-08-11T05:22:16.473Z,84.38
2022-08-11T05:23:16.463Z,84.38
2022-08-11T05:24:16.447Z,90.00
2022-08-11T05:26:46.148Z,90.00
2022-08-11T05:26:47.303Z,90.00
2022-08-11T05:27:17.435Z,90.00
2022-08-11T05:28:16.395Z,90.00
2022-08-11T05:29:19.574Z,95.62
2022-08-11T05:30:16.365Z,95.62
2022-08-11T05:31:16.361Z,90.00
2022-08-11T05:32:16.339Z,90.00
2022-08-11T05:33:16.328Z,95.62
2022-08-11T05:34:16.320Z,95.62
2022-08-11T05:35:59.802Z,95.62
2022-08-11T05:36:16.289Z,101.25
2022-08-11T05:37:26.725Z,106.88
2022-08-11T05:38:17.286Z,106.88
2022-08-11T05:39:16.298Z,106.88
2022-08-11T05:40:16.229Z,95.62
2022-08-11T05:41:16.219Z,112.50
2022-08-11T05:42:20.866Z,118.12
2022-08-11T05:43:16.194Z,118.12
2022-08-11T05:44:21.628Z,118.12
2022-08-11T05:45:17.193Z,123.75
2022-08-11T05:46:16.157Z,123.75
2022-08-11T05:47:16.150Z,118.12
2022-08-11T05:48:16.128Z,135.00
2022-08-11T05:49:16.119Z,135.00
2022-08-11T05:50:16.094Z,135.00
2022-08-11T05:51:16.356Z,140.62
2022-08-11T05:52:16.465Z,140.62
2022-08-11T05:53:16.120Z,146.25
2022-08-11T05:54:28.558Z,146.25
2022-08-11T05:55:17.047Z,151.88
2022-08-11T05:56:16.013Z,151.88
2022-08-11T05:57:48.470Z,157.50
2022-08-11T05:58:17.012Z,157.50
2022-08-11T05:59:15.980Z,163.12
2022-08-11T06:00:15.968Z,163.12
2022-08-11T06:01:15.997Z,168.75
2022-08-11T06:02:15.934Z,174.38
2022-08-11T06:03:15.921Z,174.38
2022-08-11T06:04:15.916Z,174.38
2022-08-11T06:05:15.891Z,185.62
2022-08-11T06:06:15.880Z,191.25
2022-08-11T06:07:15.868Z,208.12
2022-08-11T06:08:15.855Z,230.62
2022-08-11T06:09:15.845Z,315.00
2022-08-11T06:10:15.827Z,433.12
2022-08-11T06:11:15.815Z,556.88
2022-08-11T06:12:15.799Z,596.25
2022-08-11T06:13:15.791Z,624.38
2022-08-11T06:14:15.881Z,630.00
2022-08-11T06:15:15.759Z,641.25
2022-08-11T06:16:15.765Z,607.50
2022-08-11T06:17:15.736Z,427.50
2022-08-11T06:18:15.712Z,275.62
2022-08-11T06:19:15.708Z,236.25
2022-08-11T06:20:15.687Z,236.25
2022-08-11T06:21:15.675Z,236.25
2022-08-11T06:22:15.667Z,241.88
2022-08-11T06:23:15.654Z,247.50
2022-08-11T06:24:15.637Z,264.38
2022-08-11T06:25:15.627Z,292.50
2022-08-11T06:26:15.610Z,461.25
2022-08-11T06:27:15.601Z,691.88
2022-08-11T06:28:20.376Z,826.88
2022-08-11T06:29:15.576Z,860.62
2022-08-11T06:30:15.552Z,888.75
2022-08-11T06:31:15.544Z,911.25
2022-08-11T06:32:15.525Z,905.62
2022-08-11T06:33:15.517Z,821.25
2022-08-11T06:34:27.387Z,618.75
2022-08-11T06:35:16.514Z,624.38
2022-08-11T06:36:15.474Z,793.12
2022-08-11T06:37:15.467Z,860.62
2022-08-11T06:38:15.445Z,905.62
2022-08-11T06:39:15.468Z,956.25
2022-08-11T06:40:15.418Z,956.25
2022-08-11T06:41:15.410Z,973.12
2022-08-11T06:42:15.392Z,1001.25
2022-08-11T06:43:15.380Z,804.38
2022-08-11T06:44:15.366Z,635.62
2022-08-11T06:45:15.353Z,601.88
2022-08-11T06:46:28.169Z,669.38
2022-08-11T06:47:15.333Z,511.88
2022-08-11T06:48:15.318Z,371.25
2022-08-11T06:49:15.307Z,337.50
2022-08-11T06:50:15.293Z,360.00
2022-08-11T06:51:15.281Z,731.25
2022-08-11T06:52:34.943Z,973.12
2022-08-11T06:53:15.263Z,720.00
2022-08-11T06:54:15.235Z,360.00
2022-08-11T06:55:54.801Z,230.62
2022-08-11T06:56:16.233Z,202.50
2022-08-11T06:57:31.253Z,196.88
2022-08-11T06:58:16.203Z,191.25
2022-08-11T06:59:15.171Z,191.25
2022-08-11T07:00:15.153Z,196.88
2022-08-11T07:01:15.215Z,196.88
2022-08-11T07:02:15.131Z,202.50
2022-08-11T07:03:15.121Z,202.50
2022-08-11T07:04:15.104Z,202.50
2022-08-11T07:05:15.095Z,202.50
2022-08-11T07:06:15.078Z,196.88
2022-08-11T07:07:15.070Z,191.25
2022-08-11T07:08:34.469Z,185.62
2022-08-11T07:09:15.041Z,185.62
2022-08-11T07:10:15.025Z,191.25
2022-08-11T07:11:15.017Z,196.88
2022-08-11T07:12:14.998Z,196.88
2022-08-11T07:13:38.238Z,196.88
2022-08-11T07:14:14.970Z,196.88
2022-08-11T07:15:14.962Z,191.25
2022-08-11T07:16:14.945Z,191.25
2022-08-11T07:17:14.958Z,196.88
2022-08-11T07:18:14.916Z,196.88
2022-08-11T07:19:16.635Z,185.62
2022-08-11T07:20:14.886Z,180.00
2022-08-11T07:22:00.244Z,185.62
2022-08-11T07:22:15.882Z,185.62
2022-08-11T07:23:14.851Z,185.62
2022-08-11T07:24:14.839Z,191.25
2022-08-11T07:25:14.824Z,202.50
2022-08-11T07:26:14.810Z,225.00
2022-08-11T07:27:14.802Z,225.00
2022-08-11T07:28:14.786Z,219.38
2022-08-11T07:29:14.776Z,225.00
2022-08-11T07:30:14.772Z,253.12
2022-08-11T07:31:14.749Z,360.00
2022-08-11T07:32:14.729Z,461.25
2022-08-11T07:34:04.841Z,1254.38
2022-08-11T07:34:18.116Z,1738.12
2022-08-11T07:35:14.698Z,1490.62
2022-08-11T07:36:14.673Z,1479.38
2022-08-11T07:37:14.668Z,1485.00
2022-08-11T07:38:17.204Z,1760.62
2022-08-11T07:39:14.686Z,1788.75
2022-08-11T07:40:14.628Z,1811.25
2022-08-11T07:41:14.614Z,1890.00
2022-08-11T07:42:14.595Z,1912.50
2022-08-11T07:43:14.581Z,2047.50
2022-08-11T07:44:14.567Z,2086.88
2022-08-11T07:45:14.560Z,2064.38
2022-08-11T07:46:14.541Z,2143.12
2022-08-11T07:47:14.530Z,2137.50
2022-08-11T07:48:14.526Z,2002.50
2022-08-11T07:49:14.505Z,2019.38
2022-08-11T07:50:14.501Z,2092.50
2022-08-11T07:51:14.542Z,2025.00
2022-08-11T07:52:14.469Z,1805.62
2022-08-11T07:53:14.461Z,1895.62
2022-08-11T07:54:16.893Z,2148.75
2022-08-11T07:55:14.434Z,2154.38
2022-08-11T07:56:14.557Z,2103.75
2022-08-11T07:58:10.238Z,2064.38
2022-08-11T07:58:20.136Z,2109.38
2022-08-11T07:59:14.400Z,2311.88
2022-08-11T08:00:14.361Z,2340.00
2022-08-11T08:01:21.793Z,2255.62
2022-08-11T08:02:15.475Z,2311.88
2022-08-11T08:03:14.324Z,2401.88
2022-08-11T08:04:14.307Z,2435.62
2022-08-11T08:05:14.302Z,2407.50
2022-08-11T08:06:28.664Z,2463.75
2022-08-11T08:07:14.279Z,2458.12
2022-08-11T08:08:14.261Z,2469.38
2022-08-11T08:09:14.258Z,2514.38
2022-08-11T08:10:16.181Z,2424.38
2022-08-11T08:11:14.224Z,2334.38
2022-08-11T08:12:14.219Z,2334.38
2022-08-11T08:13:14.194Z,2356.88
2022-08-11T08:14:14.197Z,2435.62
2022-08-11T08:15:14.168Z,2475.00
2022-08-11T08:16:14.158Z,2480.62
2022-08-11T08:17:14.139Z,2390.62
2022-08-11T08:18:26.305Z,2486.25
2022-08-11T08:19:14.115Z,2610.00
2022-08-11T08:20:14.106Z,2677.50
2022-08-11T08:21:14.090Z,2525.62
2022-08-11T08:22:38.742Z,2514.38
2022-08-11T08:23:14.071Z,2559.38
2022-08-11T08:24:14.065Z,2671.88
2022-08-11T08:25:14.049Z,2632.50
2022-08-11T08:26:16.994Z,2469.38
2022-08-11T08:27:14.027Z,2413.12
2022-08-11T08:28:14.041Z,2407.50
2022-08-11T08:29:14.011Z,2368.12
2022-08-11T08:30:13.985Z,2362.50
2022-08-11T08:31:13.970Z,2373.75
2022-08-11T08:32:13.959Z,2452.50
2022-08-11T08:33:13.946Z,2491.88
2022-08-11T08:34:13.937Z,2548.12
2022-08-11T08:35:13.921Z,2739.38
2022-08-11T08:36:13.916Z,2840.62
2022-08-11T08:37:16.182Z,2829.38
2022-08-11T08:38:13.886Z,2761.88
2022-08-11T08:39:13.922Z,2874.38
2022-08-11T08:40:13.873Z,2846.25
2022-08-11T08:41:16.375Z,2739.38
2022-08-11T08:42:13.840Z,2660.62
2022-08-11T08:43:13.826Z,2514.38
2022-08-11T08:44:37.762Z,2553.75
2022-08-11T08:45:14.820Z,2880.00
2022-08-11T08:46:13.799Z,3082.50
2022-08-11T08:47:13.782Z,2919.38
2022-08-11T08:48:13.775Z,2739.38
2022-08-11T08:49:13.757Z,2480.62
2022-08-11T08:50:16.585Z,2475.00
2022-08-11T08:51:13.740Z,2745.00
2022-08-11T08:52:30.794Z,2722.50
2022-08-11T08:53:14.732Z,2643.75
2022-08-11T08:54:13.696Z,2570.62
2022-08-11T08:55:13.684Z,2373.75
2022-08-11T08:56:13.673Z,2300.62
2022-08-11T08:57:13.656Z,2311.88
2022-08-11T08:58:13.649Z,2430.00
2022-08-11T08:59:13.633Z,2570.62
2022-08-11T09:00:14.495Z,2520.00
2022-08-11T09:01:13.690Z,2435.62
2022-08-11T09:02:13.604Z,2531.25
2022-08-11T09:03:39.097Z,2683.12
2022-08-11T09:04:18.898Z,2643.75
2022-08-11T09:05:13.570Z,2070.00
2022-08-11T09:06:13.562Z,1186.88
2022-08-11T09:07:13.546Z,736.88
2022-08-11T09:08:13.536Z,630.00
2022-08-11T09:09:13.521Z,573.75
2022-08-11T09:10:13.516Z,528.75
2022-08-11T09:11:14.155Z,517.50
2022-08-11T09:12:13.484Z,511.88
2022-08-11T09:13:13.471Z,511.88
2022-08-11T09:14:15.234Z,511.88
2022-08-11T09:15:13.450Z,523.12
2022-08-11T09:16:13.445Z,540.00
2022-08-11T09:17:13.428Z,573.75
2022-08-11T09:18:13.426Z,624.38
2022-08-11T09:19:13.413Z,731.25
2022-08-11T09:20:13.400Z,1096.88
2022-08-11T09:21:13.396Z,2216.25
2022-08-11T09:22:13.403Z,2947.50
2022-08-11T09:24:22.088Z,3138.75
2022-08-11T09:25:13.347Z,3031.88
2022-08-11T09:26:13.334Z,3037.50
2022-08-11T09:27:13.318Z,3290.62
2022-08-11T09:28:13.314Z,3363.75
2022-08-11T09:29:13.295Z,3318.75
2022-08-11T09:30:13.288Z,3099.38
2022-08-11T09:31:13.611Z,2986.88
2022-08-11T09:32:13.266Z,3127.50
2022-08-11T09:33:13.246Z,3307.50
2022-08-11T09:34:13.233Z,3465.00
2022-08-11T09:35:13.219Z,3487.50
2022-08-11T09:36:13.211Z,3667.50
2022-08-11T09:37:13.199Z,3718.12
2022-08-11T09:38:13.192Z,3577.50
2022-08-11T09:39:13.238Z,3645.00
2022-08-11T09:40:13.168Z,3504.38
2022-08-11T09:41:13.154Z,3285.00
2022-08-11T09:42:16.705Z,3352.50
2022-08-11T09:43:14.157Z,3301.88
2022-08-11T09:44:13.129Z,3335.62
2022-08-11T09:45:13.111Z,3442.50
2022-08-11T09:46:13.107Z,3436.88
2022-08-11T09:47:13.086Z,3313.12
2022-08-11T09:48:13.075Z,3335.62
2022-08-11T09:49:13.069Z,3487.50
2022-08-11T09:50:13.069Z,3656.25
2022-08-11T09:51:13.048Z,3740.62
2022-08-11T09:52:13.046Z,3678.75
2022-08-11T09:53:36.511Z,3555.00
2022-08-11T09:54:14.040Z,3706.88
2022-08-11T09:55:13.002Z,3785.62
2022-08-11T09:56:12.994Z,3543.75
2022-08-11T09:57:12.981Z,3150.00
2022-08-11T09:58:12.965Z,2593.12
2022-08-11T09:59:12.956Z,2497.50
2022-08-11T10:00:14.187Z,3048.75
2022-08-11T10:01:12.953Z,3712.50
2022-08-11T10:02:12.926Z,3841.88
2022-08-11T10:03:12.910Z,3746.25
2022-08-11T10:04:12.901Z,3690.00
2022-08-11T10:05:12.883Z,3701.25
2022-08-11T10:06:13.249Z,3678.75
2022-08-11T10:07:12.870Z,3735.00
2022-08-11T10:08:12.859Z,3588.75
2022-08-11T10:09:12.846Z,3453.75
2022-08-11T10:10:12.851Z,3521.25
2022-08-11T10:11:12.825Z,3549.38
2022-08-11T10:12:12.817Z,3735.00
2022-08-11T10:14:12.249Z,3549.38
2022-08-11T10:14:32.760Z,3116.25
2022-08-11T10:15:12.775Z,3015.00
2022-08-11T10:16:15.279Z,2953.12
2022-08-11T10:17:12.756Z,3133.12
2022-08-11T10:18:12.749Z,3504.38
2022-08-11T10:19:12.729Z,3678.75
2022-08-11T10:20:12.720Z,3690.00
2022-08-11T10:21:12.707Z,3701.25
2022-08-11T10:22:12.701Z,3926.25
2022-08-11T10:23:12.692Z,4066.88
2022-08-11T10:24:12.687Z,4044.38
2022-08-11T10:25:12.667Z,4078.12
2022-08-11T10:26:12.658Z,4111.88
2022-08-11T10:27:12.643Z,3931.88
2022-08-11T10:28:29.109Z,3695.62
2022-08-11T10:29:13.866Z,3600.00
2022-08-11T10:30:12.635Z,3504.38
2022-08-11T10:31:13.662Z,3448.12
2022-08-11T10:32:12.589Z,3369.38
2022-08-11T10:33:12.577Z,3172.50
2022-08-11T10:34:12.574Z,3403.12
2022-08-11T10:35:12.553Z,3414.38
2022-08-11T10:36:16.685Z,3420.00
2022-08-11T10:37:15.024Z,3645.00
2022-08-11T10:38:12.521Z,3875.62
2022-08-11T10:39:12.542Z,4027.50
2022-08-11T10:40:12.498Z,4224.38
2022-08-11T10:41:12.484Z,4168.12
2022-08-11T10:42:25.537Z,4117.50
2022-08-11T10:43:12.463Z,4089.38
2022-08-11T10:44:12.452Z,3965.62
2022-08-11T10:45:12.444Z,3999.38
2022-08-11T10:46:12.443Z,3999.38
2022-08-11T10:47:12.421Z,3960.00
2022-08-11T10:48:15.552Z,3729.38
2022-08-11T10:49:12.397Z,3695.62
2022-08-11T10:50:12.390Z,3971.25
2022-08-11T10:51:12.372Z,3948.75
2022-08-11T10:52:12.364Z,3847.50
2022-08-11T10:53:12.362Z,3881.25
2022-08-11T10:54:12.926Z,3667.50
2022-08-11T10:55:12.338Z,3504.38
2022-08-11T10:56:12.328Z,3481.88
2022-08-11T10:57:12.314Z,3459.38
2022-08-11T10:58:12.304Z,3661.88
2022-08-11T10:59:12.289Z,4033.12
2022-08-11T11:00:12.295Z,4055.62
2022-08-11T11:01:12.303Z,4100.62
2022-08-11T11:02:12.251Z,4066.88
2022-08-11T11:03:23.785Z,3926.25
2022-08-11T11:04:12.228Z,3819.38
2022-08-11T11:05:12.233Z,3768.75
2022-08-11T11:06:27.904Z,3813.75
2022-08-11T11:07:12.193Z,3791.25
2022-08-11T11:08:12.187Z,3954.38
2022-08-11T11:09:12.172Z,3875.62
2022-08-11T11:10:12.175Z,3706.88
2022-08-11T11:11:12.156Z,3780.00
2022-08-11T11:12:12.150Z,3931.88
2022-08-11T11:13:12.142Z,3847.50
2022-08-11T11:14:12.130Z,3628.12
2022-08-11T11:15:17.316Z,3459.38
2022-08-11T11:16:12.107Z,3465.00
2022-08-11T11:17:14.126Z,3571.88
2022-08-11T11:18:12.124Z,3858.75
2022-08-11T11:19:12.071Z,4010.62
2022-08-11T11:20:13.139Z,3830.62
2022-08-11T11:21:12.047Z,3836.25
2022-08-11T11:22:12.044Z,3836.25
2022-08-11T11:23:12.027Z,3560.62
2022-08-11T11:24:12.021Z,2362.50
2022-08-11T11:25:12.005Z,1226.25
2022-08-11T11:26:11.993Z,1181.25
2022-08-11T11:27:11.977Z,1968.75
2022-08-11T11:28:11.970Z,2964.38
2022-08-11T11:29:11.956Z,2975.62
2022-08-11T11:30:11.946Z,2790.00
2022-08-11T11:31:11.931Z,2908.12
2022-08-11T11:32:11.922Z,2626.88
2022-08-11T11:33:11.908Z,2638.12
2022-08-11T11:34:13.039Z,2880.00
2022-08-11T11:35:11.896Z,2818.12
2022-08-11T11:36:11.883Z,2733.75
2022-08-11T11:37:11.864Z,2593.12
2022-08-11T11:38:14.038Z,2047.50
2022-08-11T11:39:11.896Z,1035.00
2022-08-11T11:40:11.839Z,635.62
2022-08-11T11:41:11.823Z,562.50
2022-08-11T11:42:11.817Z,528.75
2022-08-11T11:43:11.806Z,511.88
2022-08-11T11:44:11.797Z,506.25
2022-08-11T11:45:22.537Z,506.25
2022-08-11T11:46:11.774Z,517.50
2022-08-11T11:47:11.816Z,534.38
2022-08-11T11:48:11.750Z,585.00
2022-08-11T11:49:16.723Z,708.75
2022-08-11T11:50:11.723Z,984.38
2022-08-11T11:51:11.710Z,1085.62
2022-08-11T11:52:11.705Z,990.00
2022-08-11T11:53:11.693Z,1040.62
2022-08-11T11:54:11.690Z,1074.38
2022-08-11T11:55:11.699Z,1096.88
2022-08-11T11:56:11.660Z,1102.50
2022-08-11T11:57:11.652Z,1018.12
2022-08-11T11:58:11.636Z,1108.12
2022-08-11T11:59:12.644Z,1102.50
2022-08-11T12:00:11.634Z,995.62
2022-08-11T12:01:11.604Z,995.62
2022-08-11T12:02:12.174Z,1057.50
2022-08-11T12:03:11.619Z,1113.75
2022-08-11T12:04:11.566Z,1170.00
2022-08-11T12:05:11.554Z,1203.75
2022-08-11T12:06:11.563Z,1288.12
2022-08-11T12:07:11.537Z,1355.62
2022-08-11T12:08:13.128Z,1406.25
2022-08-11T12:09:11.512Z,1563.75
2022-08-11T12:10:11.530Z,1721.25
2022-08-11T12:11:11.500Z,1310.62
2022-08-11T12:12:11.489Z,849.38
2022-08-11T12:13:11.474Z,759.38
2022-08-11T12:14:11.468Z,748.12
2022-08-11T12:15:11.451Z,736.88
2022-08-11T12:16:32.773Z,703.12
2022-08-11T12:17:11.434Z,646.88
2022-08-11T12:18:11.423Z,607.50
2022-08-11T12:19:11.408Z,568.12
2022-08-11T12:20:32.043Z,540.00
2022-08-11T12:21:11.386Z,523.12
2022-08-11T12:22:11.372Z,506.25
2022-08-11T12:23:11.364Z,489.38
2022-08-11T12:24:11.349Z,478.12
2022-08-11T12:25:11.337Z,466.88
2022-08-11T12:26:26.998Z,455.62
2022-08-11T12:27:15.899Z,450.00
2022-08-11T12:28:11.302Z,450.00
2022-08-11T12:29:11.297Z,444.38
2022-08-11T12:30:11.288Z,444.38
2022-08-11T12:31:11.277Z,444.38
2022-08-11T12:32:11.265Z,444.38
2022-08-11T12:33:11.255Z,444.38
2022-08-11T12:34:11.240Z,450.00
2022-08-11T12:35:11.232Z,455.62
2022-08-11T12:36:11.217Z,466.88
2022-08-11T12:37:13.200Z,365.62
2022-08-11T12:38:12.774Z,478.12
2022-08-11T12:39:24.154Z,489.38
2022-08-11T12:40:43.757Z,461.25